Hauptseite
METAR-TAF:

METAR-TAF

Flughäfen :

Bahrain, Bahrain

Flughafen Bahrain

Breite: 26-16N, Länge: 050-39E, Höhe: 2 m

Beobachtung

Neuester Wetterbericht von vor 31 Minuten, um 20:00 UTC
Wind 10 kt aus West/Nordwest
Temperatur 19°C
Luftfeuchtigkeit 83%
Luftdruck 1023 hPa
Sichtweite: 9000 m
Himmel klar

METAR: OBBI 182000Z 30010KT 9000 SKC 19/16 Q1023 NOSIG

Zeit: 23:31 (20:31 UTC)

Prognose

Neuester Wetterbericht von vor 3 Stunden und 31 Minuten, um 17:00 UTC
Gültige Prognose vom 18 um 18 UTC bis 20 um 00 UTC
Wind 8 kt aus Nordwest
Sichtweite 10 km oder mehr
keine Wolken unter 1500 m und keine Kumulonimbus oder Gewitterwolken
Wahrscheinlichkeit 30% :
Zeitweise
vom 19 um 00 UTC bis 19 um 06 UTC
Sichtweite: 4000 m
trockener Dunst

TAF: OBBI 181700Z 1818/2000 31008KT CAVOK PROB30 TEMPO 1900/1906 4000 HZ NSC

Wetterbeobachtungen und Prognosen von mehr als 4000 Flughäfen (METAR und TAF Bericht).

Die verfügbaren Stationen werden durch gelbe und rote Markierungen auf der Karte dargestellt.

Führen Sie die Maus auf sie, um den Namen der Station zu sehen.

Darauf klicken, um die Beobachtung von Wetterbeobachtungen und Prognosen zu sehen.

Um die Karte zu ändern : klicken Sie auf den grünen Tasten mit einem schwarzen Kreuz Zum Vergrößern, auf den grünen Button mit einem Gedankenstrich zu verkleinern, oder auf die grünen Pfeile für benachbarte Karten.


METAR-TAF: